createdAt,value
2023-01-31T00:01:35.472Z,-3.09
2023-01-31T00:04:24.428Z,-3.08
2023-01-31T00:07:13.090Z,-3.07
2023-01-31T00:10:01.950Z,-3.06
2023-01-31T00:12:51.007Z,-3.05
2023-01-31T00:15:40.062Z,-3.05
2023-01-31T00:18:29.093Z,-3.02
2023-01-31T00:21:20.229Z,-3.00
2023-01-31T00:24:09.004Z,-2.98
2023-01-31T00:26:57.892Z,-2.96
2023-01-31T00:29:47.918Z,-2.95
2023-01-31T00:32:38.028Z,-2.94
2023-01-31T00:35:26.936Z,-2.94
2023-01-31T00:38:16.063Z,-2.90
2023-01-31T00:41:05.354Z,-2.90
2023-01-31T00:43:55.541Z,-2.88
2023-01-31T00:46:44.303Z,-2.88
2023-01-31T00:49:33.125Z,-2.91
2023-01-31T00:52:22.067Z,-2.89
2023-01-31T00:55:10.792Z,-2.86
2023-01-31T00:57:59.519Z,-2.85
2023-01-31T01:00:48.460Z,-2.86
2023-01-31T01:03:37.467Z,-2.86
2023-01-31T01:06:29.190Z,-2.85
2023-01-31T01:09:18.401Z,-2.84
2023-01-31T01:12:07.096Z,-2.85
2023-01-31T01:14:57.771Z,-2.85
2023-01-31T01:17:47.489Z,-2.85
2023-01-31T01:20:36.668Z,-2.84
2023-01-31T01:23:25.313Z,-2.81
2023-01-31T01:26:15.423Z,-2.82
2023-01-31T01:29:04.763Z,-2.82
2023-01-31T01:31:53.580Z,-2.83
2023-01-31T01:34:42.359Z,-2.84
2023-01-31T01:37:31.387Z,-2.82
2023-01-31T01:40:20.212Z,-2.81
2023-01-31T01:43:11.669Z,-2.80
2023-01-31T01:46:01.398Z,-2.80
2023-01-31T01:48:51.734Z,-2.80
2023-01-31T01:51:40.404Z,-2.80
2023-01-31T01:54:34.451Z,-2.78
2023-01-31T01:57:29.175Z,-2.78
2023-01-31T02:00:23.346Z,-2.80
2023-01-31T02:03:13.953Z,-2.80
2023-01-31T02:06:04.332Z,-2.83
2023-01-31T02:08:53.100Z,-2.82
2023-01-31T02:11:42.071Z,-2.81
2023-01-31T02:14:30.940Z,-2.83
2023-01-31T02:17:19.771Z,-2.83
2023-01-31T02:20:14.225Z,-2.85
2023-01-31T02:23:06.056Z,-2.85
2023-01-31T02:25:57.447Z,-2.85
2023-01-31T02:29:13.995Z,-2.85
2023-01-31T02:32:18.075Z,-2.85
2023-01-31T02:35:09.928Z,-2.87
2023-01-31T02:38:11.162Z,-2.88
2023-01-31T02:41:13.024Z,-2.89
2023-01-31T02:44:50.836Z,-2.88
2023-01-31T02:47:45.709Z,-2.87
2023-01-31T02:50:45.217Z,-2.87
2023-01-31T02:53:46.804Z,-2.86
2023-01-31T02:56:36.791Z,-2.86
2023-01-31T02:59:32.023Z,-2.86
2023-01-31T03:02:20.765Z,-2.88
2023-01-31T03:05:14.485Z,-2.89
2023-01-31T03:08:05.311Z,-2.87
2023-01-31T03:11:05.230Z,-2.88
2023-01-31T03:14:07.599Z,-2.90
2023-01-31T03:17:33.070Z,-2.91
2023-01-31T03:20:36.502Z,-2.91
2023-01-31T03:23:29.536Z,-2.92
2023-01-31T03:26:20.396Z,-2.94
2023-01-31T03:29:11.461Z,-2.95
2023-01-31T03:32:25.234Z,-2.97
2023-01-31T03:35:14.352Z,-2.98
2023-01-31T03:38:11.933Z,-3.00
2023-01-31T03:41:14.204Z,-3.03
2023-01-31T03:44:06.941Z,-3.05
2023-01-31T03:46:59.453Z,-3.03
2023-01-31T03:49:48.361Z,-3.03
2023-01-31T03:52:38.943Z,-3.04
2023-01-31T03:55:32.422Z,-3.15
2023-01-31T03:58:22.888Z,-3.13
2023-01-31T04:01:11.701Z,-3.12
2023-01-31T04:04:12.480Z,-3.13
2023-01-31T04:07:01.521Z,-3.14
2023-01-31T04:09:50.470Z,-3.14
2023-01-31T04:12:39.483Z,-3.13
2023-01-31T04:15:28.106Z,-3.13
2023-01-31T04:18:17.749Z,-3.15
2023-01-31T04:21:06.727Z,-3.18
2023-01-31T04:23:55.548Z,-3.22
2023-01-31T04:26:44.299Z,-3.22
2023-01-31T04:29:33.614Z,-3.24
2023-01-31T04:32:25.283Z,-3.26
2023-01-31T04:35:14.300Z,-3.26
2023-01-31T04:38:03.359Z,-3.26
2023-01-31T04:40:54.623Z,-3.25
2023-01-31T04:43:43.345Z,-3.26
2023-01-31T04:46:32.180Z,-3.27
2023-01-31T04:49:21.703Z,-3.28
2023-01-31T04:52:11.113Z,-3.27
2023-01-31T04:55:00.143Z,-3.28
2023-01-31T04:57:48.801Z,-3.28
2023-01-31T05:00:37.887Z,-3.29
2023-01-31T05:03:26.776Z,-3.29
2023-01-31T05:06:15.468Z,-3.28
2023-01-31T05:09:04.407Z,-3.27
2023-01-31T05:11:53.171Z,-3.30
2023-01-31T05:14:42.364Z,-3.33
2023-01-31T05:17:31.568Z,-3.35
2023-01-31T05:20:21.157Z,-3.35
2023-01-31T05:23:10.746Z,-3.39
2023-01-31T05:25:59.713Z,-3.40
2023-01-31T05:28:48.599Z,-3.41
2023-01-31T05:31:37.396Z,-3.43
2023-01-31T05:34:26.741Z,-3.43
2023-01-31T05:37:15.520Z,-3.45
2023-01-31T05:40:04.570Z,-3.46
2023-01-31T05:42:57.223Z,-3.46
2023-01-31T05:45:47.613Z,-3.44
2023-01-31T05:48:37.010Z,-3.42
2023-01-31T05:51:25.898Z,-3.40
2023-01-31T05:54:14.648Z,-3.36
2023-01-31T05:57:03.294Z,-3.33
2023-01-31T05:59:51.969Z,-3.30
2023-01-31T06:02:41.798Z,-3.26
2023-01-31T06:05:31.381Z,-3.23
2023-01-31T06:08:20.546Z,-3.21
2023-01-31T06:11:11.177Z,-3.19
2023-01-31T06:14:01.797Z,-3.15
2023-01-31T06:16:50.976Z,-3.10
2023-01-31T06:19:39.732Z,-3.06
2023-01-31T06:22:28.663Z,-3.01
2023-01-31T06:25:17.487Z,-2.98
2023-01-31T06:28:07.515Z,-2.95
2023-01-31T06:30:56.811Z,-2.91
2023-01-31T06:33:47.989Z,-2.87
2023-01-31T06:36:37.723Z,-2.82
2023-01-31T06:39:26.908Z,-2.76
2023-01-31T06:42:15.587Z,-2.72
2023-01-31T06:45:04.589Z,-2.72
2023-01-31T06:47:53.284Z,-2.71
2023-01-31T06:50:42.426Z,-2.63
2023-01-31T06:53:31.982Z,-2.56
2023-01-31T06:56:21.099Z,-2.51
2023-01-31T06:59:09.866Z,-2.47
2023-01-31T07:01:58.729Z,-2.44
2023-01-31T07:04:47.443Z,-2.40
2023-01-31T07:07:39.774Z,-2.35
2023-01-31T07:10:28.442Z,-2.31
2023-01-31T07:13:17.197Z,-2.26
2023-01-31T07:16:06.108Z,-2.20
2023-01-31T07:18:55.304Z,-2.12
2023-01-31T07:21:44.509Z,-2.04
2023-01-31T07:24:33.530Z,-1.92
2023-01-31T07:27:22.224Z,-1.80
2023-01-31T07:30:11.660Z,-1.73
2023-01-31T07:33:00.520Z,-1.64
2023-01-31T07:35:49.674Z,-1.57
2023-01-31T07:38:38.410Z,-1.47
2023-01-31T07:41:27.135Z,-1.39
2023-01-31T07:44:15.953Z,-1.32
2023-01-31T07:47:04.614Z,-1.25
2023-01-31T07:49:55.202Z,-1.17
2023-01-31T07:52:44.401Z,-1.14
2023-01-31T07:55:33.121Z,-1.13
2023-01-31T07:58:21.810Z,-1.14
2023-01-31T08:01:50.839Z,-1.16
2023-01-31T08:04:39.805Z,-1.09
2023-01-31T08:07:29.488Z,-1.03
2023-01-31T08:10:18.153Z,-0.99
2023-01-31T08:13:07.345Z,-0.95
2023-01-31T08:15:56.104Z,-0.88
2023-01-31T08:18:45.450Z,-0.80
2023-01-31T08:21:34.227Z,-0.76
2023-01-31T08:24:23.331Z,-0.76
2023-01-31T08:27:11.997Z,-0.75
2023-01-31T08:30:00.759Z,-0.70
2023-01-31T08:32:49.564Z,-0.66
2023-01-31T08:35:38.864Z,-0.61
2023-01-31T08:38:27.549Z,-0.54
2023-01-31T08:41:17.863Z,-0.49
2023-01-31T08:44:06.790Z,-0.44
2023-01-31T08:46:55.413Z,-0.40
2023-01-31T08:49:44.282Z,-0.38
2023-01-31T08:52:35.516Z,-0.37
2023-01-31T08:55:25.243Z,-0.36
2023-01-31T08:58:13.955Z,-0.34
2023-01-31T09:01:06.451Z,-0.31
2023-01-31T09:03:57.311Z,-0.28
2023-01-31T09:06:46.375Z,-0.24
2023-01-31T09:09:35.335Z,-0.19
2023-01-31T09:12:24.140Z,-0.15
2023-01-31T09:15:13.205Z,-0.12
2023-01-31T09:18:02.030Z,-0.11
2023-01-31T09:20:50.634Z,-0.10
2023-01-31T09:23:42.234Z,-0.12
2023-01-31T09:26:32.206Z,-0.14
2023-01-31T09:29:21.043Z,-0.15
2023-01-31T09:32:09.786Z,-0.16
2023-01-31T09:34:59.071Z,-0.13
2023-01-31T09:37:47.987Z,-0.07
2023-01-31T09:40:40.010Z,-0.03
2023-01-31T09:43:33.458Z,-0.04
2023-01-31T09:46:25.379Z,-0.03
2023-01-31T09:49:22.792Z,0.01
2023-01-31T09:52:11.578Z,0.07
2023-01-31T09:55:00.247Z,0.11
2023-01-31T09:57:55.810Z,0.12
2023-01-31T10:00:55.193Z,0.16
2023-01-31T12:10:42.452Z,-0.15
2023-01-31T12:13:32.244Z,-0.20
2023-01-31T12:16:22.939Z,-0.19
2023-01-31T12:19:11.938Z,-0.17
2023-01-31T12:22:16.117Z,-0.13
2023-01-31T12:25:12.410Z,-0.04
2023-01-31T12:28:37.989Z,0.11
2023-01-31T12:31:38.859Z,0.22
2023-01-31T12:35:01.396Z,0.25
2023-01-31T12:38:26.665Z,0.34
2023-01-31T12:41:36.909Z,0.40
2023-01-31T12:44:40.838Z,0.44
2023-01-31T12:47:55.517Z,0.44
2023-01-31T12:50:52.808Z,0.49
2023-01-31T12:53:50.205Z,0.53
2023-01-31T12:56:46.893Z,0.55
2023-01-31T12:59:44.636Z,0.56
2023-01-31T13:02:39.969Z,0.57
2023-01-31T13:05:34.673Z,0.60
2023-01-31T13:08:28.626Z,0.67
2023-01-31T13:11:30.862Z,0.67
2023-01-31T13:14:24.522Z,0.68
2023-01-31T13:17:14.763Z,0.65
2023-01-31T13:20:31.221Z,0.65
2023-01-31T13:23:24.595Z,0.68
2023-01-31T13:26:21.616Z,0.67
2023-01-31T13:29:14.253Z,0.63
2023-01-31T13:32:39.143Z,0.64
2023-01-31T13:35:32.732Z,0.64
2023-01-31T13:38:21.663Z,0.62
2023-01-31T13:41:33.366Z,0.60
2023-01-31T13:44:22.163Z,0.59
2023-01-31T13:47:18.696Z,0.60
2023-01-31T13:50:18.763Z,0.58
2023-01-31T13:53:12.460Z,0.55
2023-01-31T13:56:01.450Z,0.53
2023-01-31T13:58:50.489Z,0.54
2023-01-31T14:01:48.854Z,0.54
2023-01-31T14:04:40.271Z,0.54
2023-01-31T14:07:29.678Z,0.57
2023-01-31T14:10:18.317Z,0.55
2023-01-31T14:13:27.663Z,0.54
2023-01-31T14:16:31.979Z,0.52
2023-01-31T14:19:23.337Z,0.52
2023-01-31T14:22:13.363Z,0.47
2023-01-31T14:25:11.085Z,0.44
2023-01-31T14:28:01.663Z,0.46
2023-01-31T14:30:50.490Z,0.45
2023-01-31T14:33:39.293Z,0.43
2023-01-31T14:36:33.740Z,0.41
2023-01-31T14:39:50.424Z,0.40
2023-01-31T14:43:10.585Z,0.40
2023-01-31T14:46:22.402Z,0.39
2023-01-31T14:49:32.541Z,0.35
2023-01-31T14:53:05.835Z,0.35
2023-01-31T14:56:09.680Z,0.40
2023-01-31T14:58:58.445Z,0.36
2023-01-31T15:01:47.183Z,0.33
2023-01-31T15:04:35.890Z,0.27
2023-01-31T15:07:25.212Z,0.27
2023-01-31T15:10:52.360Z,0.22
2023-01-31T15:13:44.396Z,0.19
2023-01-31T15:16:33.765Z,0.17
2023-01-31T15:19:24.491Z,0.16
2023-01-31T15:22:13.275Z,0.18
2023-01-31T15:25:07.807Z,0.17
2023-01-31T15:27:56.853Z,0.16
2023-01-31T15:30:45.816Z,0.17
2023-01-31T15:33:51.012Z,0.19
2023-01-31T15:36:46.024Z,0.20
2023-01-31T15:39:44.518Z,0.21
2023-01-31T15:42:34.039Z,0.19
2023-01-31T15:45:29.949Z,0.19
2023-01-31T15:48:20.155Z,0.16
2023-01-31T15:51:14.942Z,0.15
2023-01-31T15:54:06.225Z,0.11
2023-01-31T15:56:54.992Z,0.10
2023-01-31T15:59:44.900Z,0.13
2023-01-31T18:06:19.112Z,-1.34
2023-01-31T18:09:11.076Z,-1.29
2023-01-31T18:12:00.422Z,-1.13
2023-01-31T18:14:49.227Z,-1.02
2023-01-31T18:17:39.097Z,-0.92
2023-01-31T18:20:28.713Z,-0.86
2023-01-31T18:23:17.331Z,-0.80
2023-01-31T18:26:07.060Z,-0.71
2023-01-31T18:28:57.616Z,-0.60
2023-01-31T18:31:47.758Z,-0.53
2023-01-31T18:34:40.393Z,-0.32
2023-01-31T18:37:29.963Z,-0.34
2023-01-31T18:40:19.042Z,-0.32
2023-01-31T18:43:09.036Z,-0.28
2023-01-31T18:45:57.973Z,-0.21
2023-01-31T18:48:47.403Z,-0.26
2023-01-31T18:51:39.415Z,-0.24
2023-01-31T18:54:28.342Z,-0.18
2023-01-31T18:57:17.119Z,-0.17
2023-01-31T19:00:06.930Z,-0.08
2023-01-31T19:02:55.876Z,-0.15
2023-01-31T19:05:44.824Z,-0.10
2023-01-31T19:08:33.960Z,-0.06
2023-01-31T19:11:24.775Z,-0.00
2023-01-31T19:14:14.009Z,-0.06
2023-01-31T19:17:03.009Z,-0.01
2023-01-31T19:19:52.066Z,0.01
2023-01-31T19:22:41.124Z,0.00
2023-01-31T19:25:29.916Z,-0.01
2023-01-31T19:28:22.965Z,-0.05
2023-01-31T19:31:16.445Z,-0.04
2023-01-31T19:34:06.433Z,-0.03
2023-01-31T19:36:55.474Z,0.02
2023-01-31T19:39:44.601Z,0.00
2023-01-31T19:42:33.732Z,-0.03
2023-01-31T19:45:23.291Z,-0.15
2023-01-31T19:48:12.319Z,-0.14
2023-01-31T19:51:06.652Z,-0.17
2023-01-31T19:53:59.249Z,-0.20
2023-01-31T19:56:48.051Z,-0.17
2023-01-31T19:59:37.501Z,-0.14
2023-01-31T20:02:26.698Z,-0.15
2023-01-31T20:05:16.136Z,-0.12
2023-01-31T20:08:05.507Z,-0.14
2023-01-31T20:10:55.231Z,-0.15
2023-01-31T20:13:45.244Z,-0.17
2023-01-31T20:16:33.942Z,-0.21
2023-01-31T20:19:23.003Z,-0.23
2023-01-31T20:22:12.408Z,-0.18
2023-01-31T20:25:01.458Z,-0.18
2023-01-31T20:27:50.230Z,-0.18
2023-01-31T20:30:39.253Z,-0.16
2023-01-31T20:33:28.146Z,-0.22
2023-01-31T20:36:17.067Z,-0.19
2023-01-31T20:39:06.577Z,-0.20
2023-01-31T20:41:57.076Z,-0.31
2023-01-31T20:44:46.571Z,-0.37
2023-01-31T20:47:35.642Z,-0.42
2023-01-31T20:50:25.487Z,-0.43
2023-01-31T20:53:18.719Z,-0.47
2023-01-31T20:56:09.997Z,-0.50
2023-01-31T20:58:59.427Z,-0.54
2023-01-31T21:01:48.061Z,-0.55
2023-01-31T21:04:36.928Z,-0.58
2023-01-31T21:07:25.946Z,-0.61
2023-01-31T21:10:15.378Z,-0.66
2023-01-31T21:13:04.513Z,-0.70
2023-01-31T21:15:54.049Z,-0.73
2023-01-31T21:18:46.052Z,-0.73
2023-01-31T21:21:35.206Z,-0.75
2023-01-31T21:24:23.987Z,-0.70
2023-01-31T21:27:31.066Z,-0.66
2023-01-31T21:30:20.089Z,-0.59
2023-01-31T21:33:08.942Z,-0.52
2023-01-31T21:35:58.385Z,-0.49
2023-01-31T21:38:47.469Z,-0.48
2023-01-31T21:41:55.000Z,-0.41
2023-01-31T21:44:44.563Z,-0.34
2023-01-31T21:47:33.513Z,-0.34
2023-01-31T21:50:24.762Z,-0.31
2023-01-31T21:53:15.178Z,-0.25
2023-01-31T21:56:06.802Z,-0.19
2023-01-31T21:58:55.800Z,-0.17
2023-01-31T22:01:44.886Z,-0.14
2023-01-31T22:04:33.732Z,-0.11
2023-01-31T22:07:22.995Z,-0.12
2023-01-31T22:10:11.795Z,-0.07
2023-01-31T22:13:00.919Z,-0.03
2023-01-31T22:15:49.780Z,0.02
2023-01-31T22:18:38.987Z,0.06
2023-01-31T22:21:36.014Z,0.12
2023-01-31T22:24:24.805Z,0.23
2023-01-31T22:27:13.652Z,0.30
2023-01-31T22:30:14.983Z,0.31
2023-01-31T22:33:04.790Z,0.44
2023-01-31T22:35:54.757Z,0.47
2023-01-31T22:38:44.164Z,0.51
2023-01-31T22:41:33.826Z,0.58
2023-01-31T22:44:23.470Z,0.63
2023-01-31T22:47:13.617Z,0.74
2023-01-31T22:50:02.385Z,0.81
2023-01-31T22:52:51.126Z,0.75
2023-01-31T22:55:40.718Z,0.74
2023-01-31T22:58:29.666Z,0.77
2023-01-31T23:01:21.869Z,0.78
2023-01-31T23:04:10.612Z,0.83
2023-01-31T23:06:59.835Z,0.87
2023-01-31T23:09:48.936Z,0.86
2023-01-31T23:12:42.577Z,0.89
2023-01-31T23:15:31.855Z,0.91
2023-01-31T23:18:30.961Z,0.96
2023-01-31T23:21:20.158Z,0.95
2023-01-31T23:24:09.448Z,0.99
2023-01-31T23:26:58.189Z,0.99
2023-01-31T23:29:47.065Z,1.04
2023-01-31T23:32:35.753Z,1.06
2023-01-31T23:35:26.864Z,1.10
2023-01-31T23:38:15.815Z,1.10
2023-01-31T23:41:04.757Z,1.08
2023-01-31T23:43:53.756Z,1.10
2023-01-31T23:46:42.741Z,1.09
2023-01-31T23:49:31.543Z,1.02
2023-01-31T23:52:20.322Z,1.04
2023-01-31T23:55:09.281Z,1.06
2023-01-31T23:57:58.008Z,1.05
